createdAt,value
2019-04-28T00:00:51.256Z,11.60
2019-04-28T00:05:45.192Z,17.50
2019-04-28T00:10:39.284Z,16.90
2019-04-28T00:15:34.520Z,12.03
2019-04-28T00:20:31.102Z,16.93
2019-04-28T00:25:26.965Z,11.37
2019-04-28T00:30:21.734Z,14.43
2019-04-28T00:35:15.837Z,16.17
2019-04-28T00:40:11.135Z,12.10
2019-04-28T00:45:06.690Z,18.60
2019-04-28T00:50:02.150Z,16.33
2019-04-28T00:54:56.332Z,13.60
2019-04-28T00:59:57.815Z,13.47
2019-04-28T01:04:46.158Z,13.80
2019-04-28T01:09:41.632Z,15.70
2019-04-28T01:14:35.806Z,15.17
2019-04-28T01:19:31.669Z,12.60
2019-04-28T01:24:25.722Z,15.03
2019-04-28T01:29:19.789Z,16.50
2019-04-28T01:34:20.420Z,11.57
2019-04-28T01:39:14.602Z,16.33
2019-04-28T01:44:10.212Z,14.30
2019-04-28T01:49:04.337Z,12.70
2019-04-28T01:54:00.123Z,14.00
2019-04-28T01:58:54.172Z,16.90
2019-04-28T02:03:50.154Z,18.93
2019-04-28T02:08:44.188Z,15.67
2019-04-28T02:13:39.758Z,15.17
2019-04-28T02:18:33.872Z,16.67
2019-04-28T02:23:29.940Z,19.93
2019-04-28T02:28:24.020Z,13.73
2019-04-28T02:33:17.987Z,16.20
2019-04-28T02:38:11.949Z,15.40
2019-04-28T02:43:06.007Z,13.53
2019-04-28T02:48:01.890Z,21.63
2019-04-28T02:53:10.984Z,16.40
2019-04-28T02:58:05.239Z,17.33
2019-04-28T03:03:01.422Z,13.07
2019-04-28T03:07:55.193Z,16.47
2019-04-28T03:12:51.773Z,16.07
2019-04-28T03:17:45.424Z,11.33
2019-04-28T03:22:40.842Z,14.30
2019-04-28T03:27:37.197Z,17.00
2019-04-28T03:32:45.475Z,12.17
2019-04-28T03:37:31.934Z,14.20
2019-04-28T03:42:25.933Z,15.33
2019-04-28T03:47:21.122Z,16.13
2019-04-28T03:52:15.518Z,11.43
2019-04-28T03:57:11.367Z,9.90
2019-04-28T04:02:05.331Z,13.70
2019-04-28T04:07:01.490Z,11.70
2019-04-28T04:12:15.227Z,13.57
2019-04-28T04:17:14.100Z,11.97
2019-04-28T04:22:10.158Z,16.20
2019-04-28T04:27:04.014Z,16.30
2019-04-28T04:32:13.822Z,15.03
2019-04-28T04:36:54.001Z,18.13
2019-04-28T04:41:50.223Z,11.53
2019-04-28T04:46:43.824Z,15.60
2019-04-28T04:51:40.710Z,13.90
2019-04-28T04:56:34.168Z,20.77
2019-04-28T05:01:40.819Z,9.40
2019-04-28T05:06:36.868Z,14.80
2019-04-28T05:11:30.801Z,18.27
2019-04-28T05:16:24.758Z,16.90
2019-04-28T05:21:19.225Z,16.47
2019-04-28T05:26:14.581Z,18.47
2019-04-28T05:31:13.519Z,13.87
2019-04-28T05:36:05.101Z,8.97
2019-04-28T05:41:02.344Z,14.40
2019-04-28T05:45:54.983Z,15.23
2019-04-28T05:50:50.946Z,17.17
2019-04-28T05:55:46.868Z,17.60
2019-04-28T06:00:42.744Z,12.00
2019-04-28T06:05:36.803Z,11.80
2019-04-28T06:10:30.757Z,10.70
2019-04-28T06:15:24.692Z,13.20
2019-04-28T06:20:20.110Z,14.17
2019-04-28T06:25:14.209Z,15.40
2019-04-28T06:30:08.370Z,13.63
2019-04-28T06:35:04.425Z,9.10
2019-04-28T06:39:58.385Z,9.20
2019-04-28T06:44:52.434Z,12.60
2019-04-28T06:49:46.395Z,13.33
2019-04-28T06:54:40.379Z,10.00
2019-04-28T06:59:34.340Z,8.97
2019-04-28T07:04:28.307Z,9.53
2019-04-28T07:09:22.397Z,9.73
2019-04-28T07:14:16.343Z,10.67
2019-04-28T07:19:10.318Z,7.70
2019-04-28T07:24:04.411Z,14.90
2019-04-28T07:28:58.730Z,13.70
2019-04-28T07:33:52.902Z,8.57
2019-04-28T07:38:46.920Z,7.13
2019-04-28T07:43:40.892Z,6.90
2019-04-28T07:48:35.045Z,9.67
2019-04-28T07:53:37.744Z,12.13
2019-04-28T07:58:31.726Z,11.63
2019-04-28T08:03:25.781Z,10.00
2019-04-28T08:08:19.808Z,9.30
2019-04-28T08:13:13.806Z,6.67
2019-04-28T08:18:07.979Z,6.37
2019-04-28T08:23:01.991Z,7.70
2019-04-28T08:27:56.008Z,11.83
2019-04-28T08:33:01.168Z,9.10
2019-04-28T08:37:55.179Z,6.80
2019-04-28T08:42:49.301Z,11.63
2019-04-28T08:47:43.294Z,10.37
2019-04-28T08:52:37.463Z,7.80
2019-04-28T08:57:31.700Z,6.03
2019-04-28T09:02:25.768Z,5.43
2019-04-28T09:07:19.952Z,4.23
2019-04-28T09:12:13.909Z,7.20
2019-04-28T09:17:08.009Z,7.60
2019-04-28T09:22:02.091Z,7.17
2019-04-28T09:26:56.061Z,6.17
2019-04-28T09:31:50.162Z,7.20
2019-04-28T09:36:44.232Z,8.23
2019-04-28T09:41:40.273Z,9.43
2019-04-28T09:46:36.265Z,7.13
2019-04-28T09:51:30.331Z,8.63
2019-04-28T09:56:24.836Z,10.27
2019-04-28T10:01:19.007Z,7.90
2019-04-28T10:06:12.971Z,6.97
2019-04-28T10:11:07.070Z,7.97
2019-04-28T10:16:01.259Z,6.30
2019-04-28T10:20:55.386Z,6.20
2019-04-28T10:25:49.491Z,4.43
2019-04-28T10:30:43.665Z,3.25
2019-04-28T10:35:37.707Z,6.03
2019-04-28T10:40:36.904Z,6.80
2019-04-28T10:45:33.161Z,6.53
2019-04-28T10:50:27.179Z,5.40
2019-04-28T10:55:21.270Z,4.37
2019-04-28T11:00:17.267Z,3.47
2019-04-28T11:05:16.155Z,4.35
2019-04-28T11:10:18.101Z,4.83
2019-04-28T11:15:14.392Z,4.47
2019-04-28T11:20:08.782Z,2.47
2019-04-28T11:25:05.017Z,4.47
2019-04-28T11:29:58.996Z,3.13
2019-04-28T11:35:00.744Z,2.60
2019-04-28T11:39:54.740Z,2.62
2019-04-28T11:44:48.832Z,3.45
2019-04-28T11:49:42.833Z,2.42
2019-04-28T11:54:36.936Z,2.90
2019-04-28T11:59:30.900Z,1.45
2019-04-28T12:04:25.292Z,1.25
2019-04-28T12:09:26.273Z,1.77
2019-04-28T12:14:22.140Z,1.10
2019-04-28T12:19:18.040Z,1.05
2019-04-28T12:24:12.157Z,0.95
2019-04-28T12:29:06.372Z,1.40
2019-04-28T12:34:00.448Z,2.67
2019-04-28T12:38:54.474Z,3.55
2019-04-28T12:43:48.456Z,3.77
2019-04-28T12:48:45.324Z,1.47
2019-04-28T12:53:39.409Z,3.00
2019-04-28T12:58:33.497Z,4.45
2019-04-28T13:03:47.589Z,2.70
2019-04-28T13:08:41.555Z,1.30
2019-04-28T13:13:35.549Z,2.20
2019-04-28T13:18:29.544Z,1.45
2019-04-28T13:23:23.567Z,2.03
2019-04-28T13:28:17.657Z,2.13
2019-04-28T13:33:11.767Z,2.23
2019-04-28T13:38:05.858Z,1.60
2019-04-28T13:42:59.989Z,2.37
2019-04-28T13:47:54.076Z,4.07
2019-04-28T13:52:48.063Z,2.90
2019-04-28T13:57:42.412Z,2.80
2019-04-28T14:02:44.932Z,1.70
2019-04-28T14:07:39.268Z,1.85
2019-04-28T14:12:33.354Z,2.07
2019-04-28T14:17:27.327Z,1.52
2019-04-28T14:22:21.375Z,3.30
2019-04-28T14:27:15.508Z,1.50
2019-04-28T14:32:09.442Z,1.37
2019-04-28T14:37:03.573Z,1.52
2019-04-28T14:41:57.528Z,1.17
2019-04-28T14:46:51.568Z,1.10
2019-04-28T14:51:45.553Z,3.87
2019-04-28T14:56:39.648Z,2.77
2019-04-28T15:01:50.720Z,4.58
2019-04-28T15:06:55.516Z,1.45
2019-04-28T15:11:44.583Z,1.10
2019-04-28T15:16:38.544Z,0.90
2019-04-28T15:21:32.727Z,1.20
2019-04-28T15:26:26.653Z,1.02
2019-04-28T15:31:20.650Z,1.30
2019-04-28T15:36:14.763Z,0.88
2019-04-28T15:41:20.945Z,3.47
2019-04-28T15:46:04.809Z,1.20
2019-04-28T15:50:58.831Z,1.17
2019-04-28T15:55:54.718Z,1.92
2019-04-28T16:00:48.872Z,1.25
2019-04-28T16:05:42.866Z,1.67
2019-04-28T16:10:36.868Z,1.20
2019-04-28T16:15:30.868Z,1.77
2019-04-28T16:20:24.953Z,1.00
2019-04-28T16:25:18.943Z,1.00
2019-04-28T16:30:13.256Z,1.20
2019-04-28T16:35:07.431Z,1.42
2019-04-28T16:40:01.839Z,1.45
2019-04-28T16:44:56.493Z,1.75
2019-04-28T16:49:51.010Z,2.42
2019-04-28T16:54:47.189Z,1.22
2019-04-28T16:59:46.423Z,1.30
2019-04-28T17:04:40.623Z,1.62
2019-04-28T17:09:34.763Z,2.75
2019-04-28T17:14:28.722Z,4.23
2019-04-28T17:19:22.814Z,4.20
2019-04-28T17:24:16.839Z,1.73
2019-04-28T17:29:10.822Z,3.80
2019-04-28T17:34:04.961Z,1.40
2019-04-28T17:38:58.924Z,1.53
2019-04-28T17:43:52.952Z,1.80
2019-04-28T17:48:57.767Z,1.53
2019-04-28T17:53:51.854Z,1.33
2019-04-28T17:58:45.965Z,1.23
2019-04-28T18:03:58.635Z,1.27
2019-04-28T18:08:53.027Z,1.07
2019-04-28T18:13:47.165Z,2.00
2019-04-28T18:18:43.264Z,1.20
2019-04-28T18:23:37.277Z,1.00
2019-04-28T18:28:31.237Z,1.73
2019-04-28T18:33:30.142Z,1.37
2019-04-28T18:38:35.202Z,2.20
2019-04-28T18:43:44.999Z,2.17
2019-04-28T18:48:39.184Z,2.50
2019-04-28T18:53:33.232Z,2.73
2019-04-28T18:58:27.373Z,3.70
2019-04-28T19:03:21.656Z,5.40
2019-04-28T19:08:20.563Z,15.60
2019-04-28T19:13:31.749Z,15.67
2019-04-28T19:18:36.975Z,12.17
2019-04-28T19:23:31.045Z,19.13
2019-04-28T19:28:25.087Z,19.33
2019-04-28T19:33:19.076Z,6.87
2019-04-28T19:38:13.088Z,7.40
2019-04-28T19:43:07.092Z,9.93
2019-04-28T19:48:01.165Z,4.37
2019-04-28T19:52:56.583Z,6.63
2019-04-28T19:57:55.563Z,7.73
2019-04-28T20:02:49.640Z,7.93
2019-04-28T20:07:43.653Z,5.67
2019-04-28T20:12:37.725Z,6.37
2019-04-28T20:17:31.830Z,5.47
2019-04-28T20:22:26.145Z,7.30
2019-04-28T20:27:20.154Z,6.83
2019-04-28T20:32:14.127Z,7.07
2019-04-28T20:37:12.900Z,7.93
2019-04-28T20:42:27.723Z,8.03
2019-04-28T20:47:21.697Z,9.83
2019-04-28T20:52:15.696Z,6.37
2019-04-28T20:57:09.701Z,6.57
2019-04-28T21:02:03.903Z,7.10
2019-04-28T21:06:57.869Z,4.80
2019-04-28T21:11:51.906Z,7.03
2019-04-28T21:16:45.829Z,8.67
2019-04-28T21:21:39.825Z,6.67
2019-04-28T21:26:33.907Z,5.63
2019-04-28T21:31:27.991Z,6.07
2019-04-28T21:36:22.084Z,6.43
2019-04-28T21:41:16.278Z,5.50
2019-04-28T21:46:18.293Z,5.10
2019-04-28T21:51:12.598Z,5.37
2019-04-28T21:56:06.707Z,8.50
2019-04-28T22:01:00.972Z,7.13
2019-04-28T22:05:55.043Z,7.10
2019-04-28T22:10:49.385Z,10.73
2019-04-28T22:15:43.355Z,6.70
2019-04-28T22:20:37.334Z,8.40
2019-04-28T22:25:31.415Z,7.20
2019-04-28T22:30:25.587Z,7.63
2019-04-28T22:35:19.747Z,7.13
2019-04-28T22:40:13.924Z,6.57
2019-04-28T22:45:08.741Z,5.27
2019-04-28T22:50:07.195Z,6.87
2019-04-28T22:55:02.771Z,7.00
2019-04-28T22:59:58.658Z,5.00
2019-04-28T23:04:54.624Z,5.33
2019-04-28T23:09:48.725Z,5.57
2019-04-28T23:14:42.684Z,8.23
2019-04-28T23:19:38.580Z,7.00
2019-04-28T23:24:32.536Z,6.73
2019-04-28T23:29:26.704Z,6.83
2019-04-28T23:34:20.769Z,4.47
2019-04-28T23:39:14.771Z,6.77
2019-04-28T23:44:08.743Z,6.07
2019-04-28T23:49:02.811Z,6.13
2019-04-28T23:54:04.874Z,8.40
2019-04-28T23:58:58.850Z,6.70
